sensor_id;sensor_type;location;lat;lon;timestamp;pressure;altitude;pressure_sealevel;temperature;humidity
70445;BME280;57902;49.638;11.070;2023-10-09T00:00:06;98853.53;;;12.62;100.00
70445;BME280;57902;49.638;11.070;2023-10-09T00:02:59;98848.34;;;12.62;100.00
70445;BME280;57902;49.638;11.070;2023-10-09T00:05:28;98838.81;;;12.64;100.00
70445;BME280;57902;49.638;11.070;2023-10-09T00:08:16;98839.34;;;12.75;100.00
70445;BME280;57902;49.638;11.070;2023-10-09T00:10:55;98840.34;;;12.70;100.00
70445;BME280;57902;49.638;11.070;2023-10-09T00:13:24;98837.66;;;12.74;100.00
70445;BME280;57902;49.638;11.070;2023-10-09T00:16:06;98837.81;;;12.68;100.00
70445;BME280;57902;49.638;11.070;2023-10-09T00:18:44;98834.22;;;12.74;100.00
70445;BME280;57902;49.638;11.070;2023-10-09T00:21:17;98831.66;;;12.72;100.00
70445;BME280;57902;49.638;11.070;2023-10-09T00:23:47;98821.66;;;12.62;100.00
70445;BME280;57902;49.638;11.070;2023-10-09T00:26:26;98825.06;;;12.62;100.00
70445;BME280;57902;49.638;11.070;2023-10-09T00:28:55;98815.78;;;12.55;100.00
70445;BME280;57902;49.638;11.070;2023-10-09T00:31:28;98810.72;;;12.52;100.00
70445;BME280;57902;49.638;11.070;2023-10-09T00:34:00;98799.44;;;12.54;100.00
70445;BME280;57902;49.638;11.070;2023-10-09T00:36:28;98789.09;;;12.54;100.00
70445;BME280;57902;49.638;11.070;2023-10-09T00:38:55;98776.13;;;12.56;100.00
70445;BME280;57902;49.638;11.070;2023-10-09T00:41:26;98774.31;;;12.58;100.00
70445;BME280;57902;49.638;11.070;2023-10-09T00:44:01;98766.41;;;12.64;100.00
70445;BME280;57902;49.638;11.070;2023-10-09T00:46:35;98765.50;;;12.65;100.00
70445;BME280;57902;49.638;11.070;2023-10-09T00:49:04;98771.13;;;12.78;100.00
70445;BME280;57902;49.638;11.070;2023-10-09T00:51:42;98767.63;;;12.81;100.00
70445;BME280;57902;49.638;11.070;2023-10-09T00:54:22;98770.94;;;12.84;100.00
70445;BME280;57902;49.638;11.070;2023-10-09T00:57:04;98773.38;;;12.89;100.00
70445;BME280;57902;49.638;11.070;2023-10-09T00:59:34;98769.97;;;12.88;100.00
70445;BME280;57902;49.638;11.070;2023-10-09T01:02:06;98766.63;;;12.85;100.00
70445;BME280;57902;49.638;11.070;2023-10-09T01:04:33;98769.19;;;12.86;100.00
70445;BME280;57902;49.638;11.070;2023-10-09T01:07:07;98769.72;;;12.96;100.00
70445;BME280;57902;49.638;11.070;2023-10-09T01:09:47;98759.34;;;12.96;100.00
70445;BME280;57902;49.638;11.070;2023-10-09T01:12:17;98757.84;;;12.89;100.00
70445;BME280;57902;49.638;11.070;2023-10-09T01:14:45;98757.75;;;12.93;100.00
70445;BME280;57902;49.638;11.070;2023-10-09T01:17:13;98749.97;;;12.93;100.00
70445;BME280;57902;49.638;11.070;2023-10-09T01:19:55;98744.91;;;12.89;100.00
70445;BME280;57902;49.638;11.070;2023-10-09T01:22:23;98747.41;;;12.92;100.00
70445;BME280;57902;49.638;11.070;2023-10-09T01:24:49;98756.09;;;12.91;100.00
70445;BME280;57902;49.638;11.070;2023-10-09T01:27:17;98741.44;;;12.90;100.00
70445;BME280;57902;49.638;11.070;2023-10-09T01:29:45;98733.63;;;12.91;100.00
70445;BME280;57902;49.638;11.070;2023-10-09T01:32:14;98746.81;;;12.84;100.00
70445;BME280;57902;49.638;11.070;2023-10-09T01:34:46;98734.78;;;12.83;100.00
70445;BME280;57902;49.638;11.070;2023-10-09T01:37:17;98732.38;;;12.76;100.00
70445;BME280;57902;49.638;11.070;2023-10-09T01:39:57;98727.31;;;12.73;100.00
70445;BME280;57902;49.638;11.070;2023-10-09T01:42:29;98722.72;;;12.82;100.00
70445;BME280;57902;49.638;11.070;2023-10-09T01:45:14;98721.63;;;12.89;100.00
70445;BME280;57902;49.638;11.070;2023-10-09T01:47:49;98717.28;;;12.91;100.00
70445;BME280;57902;49.638;11.070;2023-10-09T01:50:20;98717.28;;;12.91;100.00
70445;BME280;57902;49.638;11.070;2023-10-09T01:52:57;98713.38;;;12.77;100.00
70445;BME280;57902;49.638;11.070;2023-10-09T01:55:31;98723.44;;;12.87;100.00
70445;BME280;57902;49.638;11.070;2023-10-09T01:58:04;98719.97;;;12.88;100.00
70445;BME280;57902;49.638;11.070;2023-10-09T02:00:56;98711.44;;;12.84;100.00
70445;BME280;57902;49.638;11.070;2023-10-09T02:03:23;98708.31;;;12.74;100.00
70445;BME280;57902;49.638;11.070;2023-10-09T02:05:52;98705.53;;;12.81;100.00
70445;BME280;57902;49.638;11.070;2023-10-09T02:08:29;98696.16;;;12.76;100.00
70445;BME280;57902;49.638;11.070;2023-10-09T02:10:56;98696.06;;;12.80;100.00
70445;BME280;57902;49.638;11.070;2023-10-09T02:13:23;98691.44;;;12.89;100.00
70445;BME280;57902;49.638;11.070;2023-10-09T02:15:57;98696.72;;;12.86;100.00
70445;BME280;57902;49.638;11.070;2023-10-09T02:18:40;98695.22;;;12.79;100.00
70445;BME280;57902;49.638;11.070;2023-10-09T02:21:20;98696.16;;;12.76;100.00
70445;BME280;57902;49.638;11.070;2023-10-09T02:24:05;98698.69;;;12.78;100.00
70445;BME280;57902;49.638;11.070;2023-10-09T02:26:39;98682.25;;;12.81;100.00
70445;BME280;57902;49.638;11.070;2023-10-09T02:29:06;98689.19;;;12.78;100.00
70445;BME280;57902;49.638;11.070;2023-10-09T02:31:51;98685.91;;;12.73;100.00
70445;BME280;57902;49.638;11.070;2023-10-09T02:34:30;98680.38;;;12.84;100.00
70445;BME280;57902;49.638;11.070;2023-10-09T02:37:04;98687.16;;;12.88;100.00
70445;BME280;57902;49.638;11.070;2023-10-09T02:39:36;98692.50;;;12.84;100.00
70445;BME280;57902;49.638;11.070;2023-10-09T02:42:26;98696.84;;;12.82;100.00
70445;BME280;57902;49.638;11.070;2023-10-09T02:44:55;98693.47;;;12.80;100.00
70445;BME280;57902;49.638;11.070;2023-10-09T02:47:22;98691.00;;;12.76;100.00
70445;BME280;57902;49.638;11.070;2023-10-09T02:49:56;98692.09;;;12.69;100.00
70445;BME280;57902;49.638;11.070;2023-10-09T02:52:57;98683.47;;;12.69;100.00
70445;BME280;57902;49.638;11.070;2023-10-09T02:55:37;98688.56;;;12.72;100.00
70445;BME280;57902;49.638;11.070;2023-10-09T03:01:48;98690.53;;;12.64;100.00
70445;BME280;57902;49.638;11.070;2023-10-09T03:04:23;98693.16;;;12.62;100.00
70445;BME280;57902;49.638;11.070;2023-10-09T03:07:02;98690.63;;;12.60;100.00
70445;BME280;57902;49.638;11.070;2023-10-09T03:09:52;98688.28;;;12.53;100.00
70445;BME280;57902;49.638;11.070;2023-10-09T03:12:30;98681.59;;;12.46;100.00
70445;BME280;57902;49.638;11.070;2023-10-09T03:18:02;98675.78;;;12.39;100.00
70445;BME280;57902;49.638;11.070;2023-10-09T03:20:31;98681.13;;;12.33;100.00
70445;BME280;57902;49.638;11.070;2023-10-09T03:23:01;98676.09;;;12.28;100.00
70445;BME280;57902;49.638;11.070;2023-10-09T03:25:37;98673.72;;;12.22;100.00
70445;BME280;57902;49.638;11.070;2023-10-09T03:28:09;98676.59;;;12.11;100.00
70445;BME280;57902;49.638;11.070;2023-10-09T03:30:41;98665.44;;;12.11;100.00
70445;BME280;57902;49.638;11.070;2023-10-09T03:33:13;98663.88;;;12.05;100.00
70445;BME280;57902;49.638;11.070;2023-10-09T03:35:44;98661.38;;;12.02;100.00
70445;BME280;57902;49.638;11.070;2023-10-09T03:38:11;98659.81;;;11.96;100.00
70445;BME280;57902;49.638;11.070;2023-10-09T03:40:42;98656.25;;;12.00;100.00
70445;BME280;57902;49.638;11.070;2023-10-09T03:43:16;98645.19;;;11.97;100.00
70445;BME280;57902;49.638;11.070;2023-10-09T03:45:43;98645.34;;;11.89;100.00
70445;BME280;57902;49.638;11.070;2023-10-09T03:48:19;98645.34;;;11.89;100.00
70445;BME280;57902;49.638;11.070;2023-10-09T03:50:56;98643.78;;;11.85;100.00
70445;BME280;57902;49.638;11.070;2023-10-09T03:57:21;98641.19;;;11.83;100.00
70445;BME280;57902;49.638;11.070;2023-10-09T04:03:36;98639.03;;;11.69;100.00
70445;BME280;57902;49.638;11.070;2023-10-09T04:06:17;98634.78;;;11.67;100.00
70445;BME280;57902;49.638;11.070;2023-10-09T04:08:44;98635.81;;;11.61;100.00
70445;BME280;57902;49.638;11.070;2023-10-09T04:11:17;98637.69;;;11.56;100.00
70445;BME280;57902;49.638;11.070;2023-10-09T04:13:45;98644.59;;;11.55;100.00
70445;BME280;57902;49.638;11.070;2023-10-09T04:16:16;98641.19;;;11.53;100.00
70445;BME280;57902;49.638;11.070;2023-10-09T04:19:02;98640.53;;;11.47;100.00
70445;BME280;57902;49.638;11.070;2023-10-09T04:21:52;98635.41;;;11.45;100.00
70445;BME280;57902;49.638;11.070;2023-10-09T04:24:24;98632.13;;;11.38;100.00
70445;BME280;57902;49.638;11.070;2023-10-09T04:26:51;98626.31;;;11.30;100.00
70445;BME280;57902;49.638;11.070;2023-10-09T04:29:37;98628.91;;;11.30;100.00
70445;BME280;57902;49.638;11.070;2023-10-09T04:32:14;98623.00;;;11.27;100.00
70445;BME280;57902;49.638;11.070;2023-10-09T04:35:08;98629.16;;;11.21;100.00
70445;BME280;57902;49.638;11.070;2023-10-09T04:37:53;98623.22;;;11.19;100.00
70445;BME280;57902;49.638;11.070;2023-10-09T04:40:34;98615.59;;;11.14;100.00
70445;BME280;57902;49.638;11.070;2023-10-09T04:43:35;98622.50;;;11.12;100.00
70445;BME280;57902;49.638;11.070;2023-10-09T04:46:02;98622.47;;;11.14;100.00
70445;BME280;57902;49.638;11.070;2023-10-09T04:49:10;98625.91;;;11.14;100.00
70445;BME280;57902;49.638;11.070;2023-10-09T04:52:12;98615.56;;;11.16;100.00
70445;BME280;57902;49.638;11.070;2023-10-09T04:55:01;98623.38;;;11.11;100.00
70445;BME280;57902;49.638;11.070;2023-10-09T04:57:51;98630.09;;;11.18;100.00
70445;BME280;57902;49.638;11.070;2023-10-09T05:00:31;98626.50;;;11.24;100.00
70445;BME280;57902;49.638;11.070;2023-10-09T05:03:00;98624.88;;;11.20;100.00
70445;BME280;57902;49.638;11.070;2023-10-09T05:05:39;98634.38;;;11.19;100.00
70445;BME280;57902;49.638;11.070;2023-10-09T05:08:17;98636.22;;;11.14;100.00
70445;BME280;57902;49.638;11.070;2023-10-09T05:11:02;98626.19;;;11.03;100.00
70445;BME280;57902;49.638;11.070;2023-10-09T05:13:32;98624.59;;;10.98;100.00
70445;BME280;57902;49.638;11.070;2023-10-09T05:16:09;98630.72;;;10.95;100.00
70445;BME280;57902;49.638;11.070;2023-10-09T05:19:20;98627.41;;;10.89;100.00
70445;BME280;57902;49.638;11.070;2023-10-09T05:22:09;98633.53;;;10.84;100.00
70445;BME280;57902;49.638;11.070;2023-10-09T05:25:10;98629.25;;;10.85;100.00
70445;BME280;57902;49.638;11.070;2023-10-09T05:28:04;98630.47;;;10.68;100.00
70445;BME280;57902;49.638;11.070;2023-10-09T05:30:51;98639.13;;;10.67;100.00
70445;BME280;57902;49.638;11.070;2023-10-09T05:33:41;98636.56;;;10.67;100.00
70445;BME280;57902;49.638;11.070;2023-10-09T05:36:20;98624.53;;;10.66;100.00
70445;BME280;57902;49.638;11.070;2023-10-09T05:38:47;98637.44;;;10.66;100.00
70445;BME280;57902;49.638;11.070;2023-10-09T05:41:31;98641.78;;;10.64;100.00
70445;BME280;57902;49.638;11.070;2023-10-09T05:44:18;98636.63;;;10.64;100.00
70445;BME280;57902;49.638;11.070;2023-10-09T05:47:06;98638.31;;;10.65;100.00
70445;BME280;57902;49.638;11.070;2023-10-09T05:49:53;98634.06;;;10.64;100.00
70445;BME280;57902;49.638;11.070;2023-10-09T05:52:56;98636.56;;;10.67;100.00
70445;BME280;57902;49.638;11.070;2023-10-09T05:55:24;98632.06;;;10.74;100.00
70445;BME280;57902;49.638;11.070;2023-10-09T05:58:10;98625.91;;;10.80;100.00
70445;BME280;57902;49.638;11.070;2023-10-09T06:00:54;98638.69;;;10.84;100.00
70445;BME280;57902;49.638;11.070;2023-10-09T06:03:39;98641.97;;;10.91;100.00
70445;BME280;57902;49.638;11.070;2023-10-09T06:06:15;98647.78;;;10.99;100.00
70445;BME280;57902;49.638;11.070;2023-10-09T06:09:05;98649.97;;;11.15;100.00
70445;BME280;57902;49.638;11.070;2023-10-09T06:11:43;98649.84;;;11.19;100.00
70445;BME280;57902;49.638;11.070;2023-10-09T06:14:17;98644.69;;;11.19;100.00
70445;BME280;57902;49.638;11.070;2023-10-09T06:16:57;98635.91;;;11.27;100.00
70445;BME280;57902;49.638;11.070;2023-10-09T06:19:27;98632.47;;;11.26;100.00
70445;BME280;57902;49.638;11.070;2023-10-09T06:22:00;98638.25;;;11.34;100.00
70445;BME280;57902;49.638;11.070;2023-10-09T06:24:39;98641.59;;;11.40;100.00
70445;BME280;57902;49.638;11.070;2023-10-09T06:27:21;98635.31;;;11.48;100.00
70445;BME280;57902;49.638;11.070;2023-10-09T06:29:58;98637.69;;;11.56;100.00
70445;BME280;57902;49.638;11.070;2023-10-09T06:32:47;98648.56;;;11.67;100.00
70445;BME280;57902;49.638;11.070;2023-10-09T06:35:18;98643.91;;;11.79;100.00
70445;BME280;57902;49.638;11.070;2023-10-09T06:37:46;98647.94;;;11.89;100.00
70445;BME280;57902;49.638;11.070;2023-10-09T06:40:33;98652.75;;;12.03;100.00
70445;BME280;57902;49.638;11.070;2023-10-09T06:43:19;98652.25;;;12.18;100.00
70445;BME280;57902;49.638;11.070;2023-10-09T06:45:49;98661.22;;;12.36;100.00
70445;BME280;57902;49.638;11.070;2023-10-09T06:48:28;98664.81;;;12.59;100.00
70445;BME280;57902;49.638;11.070;2023-10-09T06:51:11;98654.78;;;12.76;100.00
70445;BME280;57902;49.638;11.070;2023-10-09T06:53:54;98654.91;;;12.99;100.00
70445;BME280;57902;49.638;11.070;2023-10-09T06:56:26;98652.31;;;13.24;100.00
70445;BME280;57902;49.638;11.070;2023-10-09T06:58:58;98659.50;;;13.42;100.00
70445;BME280;57902;49.638;11.070;2023-10-09T07:01:52;98651.06;;;13.61;100.00
70445;BME280;57902;49.638;11.070;2023-10-09T07:04:40;98656.28;;;13.85;100.00
70445;BME280;57902;49.638;11.070;2023-10-09T07:07:07;98666.78;;;14.04;100.00
70445;BME280;57902;49.638;11.070;2023-10-09T07:09:39;98655.31;;;14.33;100.00
70445;BME280;57902;49.638;11.070;2023-10-09T07:12:10;98666.47;;;14.57;100.00
70445;BME280;57902;49.638;11.070;2023-10-09T07:14:40;98673.06;;;15.09;100.00
70445;BME280;57902;49.638;11.070;2023-10-09T07:17:08;98661.25;;;15.62;100.00
70445;BME280;57902;49.638;11.070;2023-10-09T07:19:50;98667.19;;;16.05;100.00
70445;BME280;57902;49.638;11.070;2023-10-09T07:22:23;98681.06;;;16.42;98.03
70445;BME280;57902;49.638;11.070;2023-10-09T07:24:56;98682.13;;;16.74;95.40
70445;BME280;57902;49.638;11.070;2023-10-09T07:27:55;98685.84;;;16.88;93.24
70445;BME280;57902;49.638;11.070;2023-10-09T07:31:01;98695.38;;;17.06;89.51
70445;BME280;57902;49.638;11.070;2023-10-09T07:45:23;98700.09;;;18.49;75.85
70445;BME280;57902;49.638;11.070;2023-10-09T07:52:44;98702.53;;;18.68;71.95
70445;BME280;57902;49.638;11.070;2023-10-09T07:56:13;98692.59;;;18.27;74.32
70445;BME280;57902;49.638;11.070;2023-10-09T08:02:50;98697.94;;;17.92;76.88
70445;BME280;57902;49.638;11.070;2023-10-09T08:06:20;98705.03;;;17.73;81.25
70445;BME280;57902;49.638;11.070;2023-10-09T08:09:06;98711.78;;;17.77;78.76
70445;BME280;57902;49.638;11.070;2023-10-09T08:11:49;98718.38;;;17.84;75.86
70445;BME280;57902;49.638;11.070;2023-10-09T08:14:43;98710.84;;;17.78;78.75
70445;BME280;57902;49.638;11.070;2023-10-09T08:17:15;98725.16;;;18.04;76.73
70445;BME280;57902;49.638;11.070;2023-10-09T08:20:05;98714.31;;;17.78;78.01
70445;BME280;57902;49.638;11.070;2023-10-09T08:22:49;98709.22;;;17.59;80.22
70445;BME280;57902;49.638;11.070;2023-10-09T08:32:06;98740.25;;;17.29;81.68
70445;BME280;57902;49.638;11.070;2023-10-09T08:35:10;98732.19;;;17.16;85.21
70445;BME280;57902;49.638;11.070;2023-10-09T08:38:09;98731.28;;;17.00;86.26
70445;BME280;57902;49.638;11.070;2023-10-09T08:40:41;98733.91;;;16.80;85.86
70445;BME280;57902;49.638;11.070;2023-10-09T08:43:13;98730.47;;;16.80;90.00
70445;BME280;57902;49.638;11.070;2023-10-09T08:59:55;98725.22;;;16.43;91.20
70445;BME280;57902;49.638;11.070;2023-10-09T09:25:07;98748.34;;;16.12;100.00
70445;BME280;57902;49.638;11.070;2023-10-09T09:27:46;98754.94;;;16.00;100.00
70445;BME280;57902;49.638;11.070;2023-10-09T09:30:26;98758.34;;;16.02;100.00
70445;BME280;57902;49.638;11.070;2023-10-09T09:33:19;98742.72;;;16.02;100.00
70445;BME280;57902;49.638;11.070;2023-10-09T09:36:06;98755.78;;;16.00;100.00
70445;BME280;57902;49.638;11.070;2023-10-09T09:38:35;98747.13;;;16.00;100.00
70445;BME280;57902;49.638;11.070;2023-10-09T09:41:15;98742.78;;;16.00;100.00
70445;BME280;57902;49.638;11.070;2023-10-09T09:43:53;98754.38;;;15.93;100.00
70445;BME280;57902;49.638;11.070;2023-10-09T09:46:23;98752.75;;;15.90;100.00
70445;BME280;57902;49.638;11.070;2023-10-09T09:49:04;98759.25;;;15.80;100.00
70445;BME280;57902;49.638;11.070;2023-10-09T09:51:32;98764.56;;;15.77;100.00
70445;BME280;57902;49.638;11.070;2023-10-09T09:53:59;98774.00;;;15.80;100.00
70445;BME280;57902;49.638;11.070;2023-10-09T09:56:26;98768.81;;;15.80;100.00
70445;BME280;57902;49.638;11.070;2023-10-09T09:58:57;98762.47;;;15.65;100.00
70445;BME280;57902;49.638;11.070;2023-10-09T10:01:29;98760.41;;;15.52;100.00
70445;BME280;57902;49.638;11.070;2023-10-09T10:04:01;98770.41;;;15.62;100.00
70445;BME280;57902;49.638;11.070;2023-10-09T10:06:31;98770.34;;;15.63;100.00
70445;BME280;57902;49.638;11.070;2023-10-09T10:08:59;98780.41;;;15.71;100.00
70445;BME280;57902;49.638;11.070;2023-10-09T10:11:47;98774.88;;;15.80;100.00
70445;BME280;57902;49.638;11.070;2023-10-09T10:14:18;98781.22;;;15.94;100.00
70445;BME280;57902;49.638;11.070;2023-10-09T10:17:05;98765.34;;;16.00;100.00
70445;BME280;57902;49.638;11.070;2023-10-09T10:22:30;98747.66;;;16.08;100.00
70445;BME280;57902;49.638;11.070;2023-10-09T10:24:57;98748.50;;;16.08;100.00
70445;BME280;57902;49.638;11.070;2023-10-09T10:27:28;98754.28;;;16.15;100.00
70445;BME280;57902;49.638;11.070;2023-10-09T10:35:18;98762.00;;;16.36;100.00
70445;BME280;57902;49.638;11.070;2023-10-09T10:37:47;98745.22;;;16.43;100.00
70445;BME280;57902;49.638;11.070;2023-10-09T10:40:24;98734.66;;;16.46;100.00
70445;BME280;57902;49.638;11.070;2023-10-09T10:43:29;98727.47;;;16.51;100.00
70445;BME280;57902;49.638;11.070;2023-10-09T10:46:04;98712.97;;;16.45;100.00
70445;BME280;57902;49.638;11.070;2023-10-09T10:48:35;98705.88;;;16.49;100.00
70445;BME280;57902;49.638;11.070;2023-10-09T10:51:05;98696.59;;;16.43;100.00
70445;BME280;57902;49.638;11.070;2023-10-09T10:53:32;98699.28;;;16.42;100.00
70445;BME280;57902;49.638;11.070;2023-10-09T10:56:14;98699.75;;;16.50;100.00
70445;BME280;57902;49.638;11.070;2023-10-09T10:58:41;98700.94;;;16.62;100.00
70445;BME280;57902;49.638;11.070;2023-10-09T11:01:20;98696.63;;;16.80;100.00
70445;BME280;57902;49.638;11.070;2023-10-09T11:03:51;98701.09;;;16.95;100.00
70445;BME280;57902;49.638;11.070;2023-10-09T11:06:31;98691.66;;;17.10;100.00
70445;BME280;57902;49.638;11.070;2023-10-09T11:09:09;98702.63;;;17.17;100.00
70445;BME280;57902;49.638;11.070;2023-10-09T11:11:49;98704.16;;;17.39;100.00
70445;BME280;57902;49.638;11.070;2023-10-09T11:14:16;98698.00;;;17.57;100.00
70445;BME280;57902;49.638;11.070;2023-10-09T11:16:50;98698.44;;;17.65;100.00
70445;BME280;57902;49.638;11.070;2023-10-09T11:19:21;98712.03;;;17.72;100.00
70445;BME280;57902;49.638;11.070;2023-10-09T11:21:54;98705.63;;;17.78;100.00
70445;BME280;57902;49.638;11.070;2023-10-09T11:24:28;98732.66;;;17.77;100.00
70445;BME280;57902;49.638;11.070;2023-10-09T11:27:04;98755.16;;;17.78;100.00
70445;BME280;57902;49.638;11.070;2023-10-09T11:29:49;98757.94;;;17.75;100.00
70445;BME280;57902;49.638;11.070;2023-10-09T11:34:49;98685.13;;;17.54;100.00
70445;BME280;57902;49.638;11.070;2023-10-09T11:37:23;98673.97;;;17.35;100.00
70445;BME280;57902;49.638;11.070;2023-10-09T11:39:59;98689.13;;;17.44;100.00
70445;BME280;57902;49.638;11.070;2023-10-09T11:42:28;98671.50;;;17.49;100.00
70445;BME280;57902;49.638;11.070;2023-10-09T11:45:27;98690.88;;;17.61;100.00
70445;BME280;57902;49.638;11.070;2023-10-09T11:48:17;98708.22;;;17.78;100.00
70445;BME280;57902;49.638;11.070;2023-10-09T11:51:13;98748.13;;;17.80;100.00
70445;BME280;57902;49.638;11.070;2023-10-09T11:53:48;98774.59;;;17.90;100.00
70445;BME280;57902;49.638;11.070;2023-10-09T11:56:24;98778.50;;;17.81;100.00
70445;BME280;57902;49.638;11.070;2023-10-09T11:58:53;98779.03;;;17.70;100.00
70445;BME280;57902;49.638;11.070;2023-10-09T12:01:21;98791.91;;;17.56;100.00
70445;BME280;57902;49.638;11.070;2023-10-09T12:03:49;98800.06;;;17.49;100.00
70445;BME280;57902;49.638;11.070;2023-10-09T12:06:17;98811.69;;;17.42;100.00
70445;BME280;57902;49.638;11.070;2023-10-09T12:08:46;98798.38;;;17.31;100.00
70445;BME280;57902;49.638;11.070;2023-10-09T12:11:16;98747.69;;;17.19;100.00
70445;BME280;57902;49.638;11.070;2023-10-09T12:13:50;98724.06;;;16.87;100.00
70445;BME280;57902;49.638;11.070;2023-10-09T12:16:23;98678.84;;;16.71;100.00
70445;BME280;57902;49.638;11.070;2023-10-09T12:18:55;98669.22;;;16.54;100.00
70445;BME280;57902;49.638;11.070;2023-10-09T12:21:22;98654.44;;;16.54;100.00
70445;BME280;57902;49.638;11.070;2023-10-09T12:23:53;98627.19;;;16.44;100.00
70445;BME280;57902;49.638;11.070;2023-10-09T12:26:39;98599.34;;;16.46;100.00
70445;BME280;57902;49.638;11.070;2023-10-09T12:29:08;98601.25;;;16.42;100.00
70445;BME280;57902;49.638;11.070;2023-10-09T12:31:53;98597.50;;;16.66;100.00
70445;BME280;57902;49.638;11.070;2023-10-09T12:34:28;98606.22;;;16.65;100.00
70445;BME280;57902;49.638;11.070;2023-10-09T12:37:09;98606.00;;;16.69;100.00
70445;BME280;57902;49.638;11.070;2023-10-09T12:39:38;98580.03;;;16.85;100.00
70445;BME280;57902;49.638;11.070;2023-10-09T12:42:06;98567.09;;;16.84;100.00
70445;BME280;57902;49.638;11.070;2023-10-09T12:44:35;98552.22;;;16.87;100.00
70445;BME280;57902;49.638;11.070;2023-10-09T12:47:11;98545.84;;;16.93;100.00
70445;BME280;57902;49.638;11.070;2023-10-09T12:49:38;98548.66;;;16.88;100.00
70445;BME280;57902;49.638;11.070;2023-10-09T12:52:07;98553.81;;;16.90;100.00
70445;BME280;57902;49.638;11.070;2023-10-09T12:54:43;98549.28;;;16.93;100.00
70445;BME280;57902;49.638;11.070;2023-10-09T12:57:12;98547.06;;;16.86;100.00
70445;BME280;57902;49.638;11.070;2023-10-09T12:59:42;98556.28;;;16.93;100.00
70445;BME280;57902;49.638;11.070;2023-10-09T13:02:15;98545.94;;;16.91;100.00
70445;BME280;57902;49.638;11.070;2023-10-09T13:04:57;98539.53;;;16.97;100.00
70445;BME280;57902;49.638;11.070;2023-10-09T13:07:26;98545.47;;;17.01;100.00
70445;BME280;57902;49.638;11.070;2023-10-09T13:09:53;98533.81;;;17.08;100.00
70445;BME280;57902;49.638;11.070;2023-10-09T13:12:35;98529.25;;;17.11;100.00
70445;BME280;57902;49.638;11.070;2023-10-09T13:15:09;98539.34;;;17.18;100.00
70445;BME280;57902;49.638;11.070;2023-10-09T13:17:39;98534.06;;;17.19;100.00
70445;BME280;57902;49.638;11.070;2023-10-09T13:20:06;98520.56;;;17.28;100.00
70445;BME280;57902;49.638;11.070;2023-10-09T13:22:40;98543.00;;;17.47;100.00
70445;BME280;57902;49.638;11.070;2023-10-09T13:25:11;98545.31;;;17.53;100.00
70445;BME280;57902;49.638;11.070;2023-10-09T13:28:00;98532.19;;;17.55;97.53
70445;BME280;57902;49.638;11.070;2023-10-09T13:30:31;98538.69;;;17.63;96.48
70445;BME280;57902;49.638;11.070;2023-10-09T13:33:05;98547.91;;;17.69;98.56
70445;BME280;57902;49.638;11.070;2023-10-09T13:35:32;98534.81;;;17.71;95.42
70445;BME280;57902;49.638;11.070;2023-10-09T13:38:04;98545.91;;;17.74;97.62
70445;BME280;57902;49.638;11.070;2023-10-09T13:40:36;98549.84;;;17.81;96.13
70445;BME280;57902;49.638;11.070;2023-10-09T13:43:03;98536.38;;;17.89;97.14
70445;BME280;57902;49.638;11.070;2023-10-09T13:45:38;98556.75;;;17.98;93.39
70445;BME280;57902;49.638;11.070;2023-10-09T13:48:05;98558.38;;;18.01;93.85
70445;BME280;57902;49.638;11.070;2023-10-09T13:50:31;98552.81;;;18.07;96.10
70445;BME280;57902;49.638;11.070;2023-10-09T13:53:09;98557.94;;;18.09;92.96
70445;BME280;57902;49.638;11.070;2023-10-09T13:55:38;98556.66;;;18.16;95.78
70445;BME280;57902;49.638;11.070;2023-10-09T13:58:10;98549.44;;;18.21;97.11
70445;BME280;57902;49.638;11.070;2023-10-09T14:00:40;98555.22;;;18.26;95.45
70445;BME280;57902;49.638;11.070;2023-10-09T14:03:09;98567.25;;;18.29;94.92
70445;BME280;57902;49.638;11.070;2023-10-09T14:05:40;98571.28;;;18.34;96.71
70445;BME280;57902;49.638;11.070;2023-10-09T14:08:21;98578.03;;;18.39;98.67
70445;BME280;57902;49.638;11.070;2023-10-09T14:10:49;98591.81;;;18.41;97.55
70445;BME280;57902;49.638;11.070;2023-10-09T14:13:16;98596.53;;;18.50;99.00
70445;BME280;57902;49.638;11.070;2023-10-09T14:15:52;98604.19;;;18.53;99.50
70445;BME280;57902;49.638;11.070;2023-10-09T14:18:44;98602.91;;;18.60;99.31
70445;BME280;57902;49.638;11.070;2023-10-09T14:29:14;98615.53;;;18.52;98.75
70445;BME280;57902;49.638;11.070;2023-10-09T14:35:18;98613.03;;;18.50;99.60
70445;BME280;57902;49.638;11.070;2023-10-09T14:37:50;98619.94;;;18.51;99.92
70445;BME280;57902;49.638;11.070;2023-10-09T14:40:21;98612.50;;;18.44;96.75
70445;BME280;57902;49.638;11.070;2023-10-09T14:43:00;98621.28;;;18.43;95.24
70445;BME280;57902;49.638;11.070;2023-10-09T14:45:38;98605.97;;;18.36;98.81
70445;BME280;57902;49.638;11.070;2023-10-09T14:48:21;98606.56;;;18.42;98.06
70445;BME280;57902;49.638;11.070;2023-10-09T14:51:24;98609.00;;;18.29;100.00
70445;BME280;57902;49.638;11.070;2023-10-09T14:54:18;98616.00;;;18.28;100.00
70445;BME280;57902;49.638;11.070;2023-10-09T14:56:45;98613.47;;;18.27;100.00
70445;BME280;57902;49.638;11.070;2023-10-09T14:59:27;98617.19;;;18.23;100.00
70445;BME280;57902;49.638;11.070;2023-10-09T15:21:13;98613.97;;;17.86;100.00
70445;BME280;57902;49.638;11.070;2023-10-09T15:23:47;98615.22;;;17.78;100.00
70445;BME280;57902;49.638;11.070;2023-10-09T15:26:18;98623.22;;;17.75;100.00
70445;BME280;57902;49.638;11.070;2023-10-09T15:28:48;98621.50;;;17.74;100.00